Time;durP1;ratioP1;P1;durP2;ratioP2;P2;SDS_P1;SDS_P2;PMS_P1;PMS_P2;Temp;Humidity;BMP_temperature;BMP_pressure;BME280_temperature;BME280_humidity;BME280_pressure;Samples;Min_cycle;Max_cycle;Signal;HPM_P1;HPM_P2
2023/01/04 00:04:28;;;;;;;6.78;4.38;;;7.30;99.90;;;;;;10141976;28;20150;-64
2023/01/04 00:09:20;;;;;;;6.10;3.20;;;7.20;99.90;;;;;;10144113;28;20035;-64
2023/01/04 00:14:17;;;;;;;5.95;3.75;;;7.10;99.90;;;;;;10143980;28;20510;-64
2023/01/04 00:19:10;;;;;;;5.40;4.13;;;7.10;99.90;;;;;;10145414;28;20036;-63
2023/01/04 00:24:01;;;;;;;10.85;3.72;;;7.00;99.90;;;;;;10143414;28;20040;-65
2023/01/04 00:28:56;;;;;;;5.97;3.38;;;7.00;99.90;;;;;;10142106;28;20020;-65
2023/01/04 00:33:47;;;;;;;6.68;4.05;;;6.90;99.90;;;;;;10142032;28;20036;-64
2023/01/04 00:38:38;;;;;;;7.00;3.90;;;6.90;99.90;;;;;;10139646;28;20040;-63
2023/01/04 00:43:29;;;;;;;5.97;3.65;;;6.70;99.90;;;;;;10141294;28;20097;-64
2023/01/04 00:48:20;;;;;;;8.35;3.25;;;6.40;99.90;;;;;;10141867;28;20521;-64
2023/01/04 00:53:12;;;;;;;9.00;3.97;;;6.40;99.90;;;;;;10142878;28;20040;-64
2023/01/04 00:58:03;;;;;;;5.38;3.08;;;6.20;99.90;;;;;;10142073;28;20441;-64
2023/01/04 01:02:54;;;;;;;7.15;3.17;;;6.30;99.90;;;;;;10141781;28;20037;-64
2023/01/04 01:07:44;;;;;;;8.85;3.80;;;6.40;99.90;;;;;;10141289;28;20032;-65
2023/01/04 01:12:35;;;;;;;8.25;3.95;;;6.40;99.90;;;;;;10136493;28;20036;-64
2023/01/04 01:17:26;;;;;;;10.82;4.38;;;6.60;99.90;;;;;;10140616;28;20047;-64
2023/01/04 01:22:16;;;;;;;8.48;4.15;;;6.70;99.90;;;;;;10141424;28;20514;-63
2023/01/04 01:27:07;;;;;;;12.38;5.78;;;6.80;99.90;;;;;;10140919;28;20036;-64
2023/01/04 01:31:57;;;;;;;10.30;4.40;;;6.70;99.90;;;;;;10140674;28;20040;-63
2023/01/04 01:36:48;;;;;;;10.38;4.80;;;6.80;99.90;;;;;;10140453;28;20487;-63
2023/01/04 01:41:39;;;;;;;10.15;4.80;;;6.90;99.90;;;;;;10140358;28;20074;-63
2023/01/04 01:46:45;;;;;;;9.68;5.68;;;7.00;99.90;;;;;;10139880;28;20172;-63
2023/01/04 01:51:37;;;;;;;8.68;4.05;;;7.00;99.90;;;;;;10140440;28;20040;-64
2023/01/04 01:56:32;;;;;;;9.85;4.95;;;7.10;99.90;;;;;;10138742;28;20066;-63
2023/01/04 02:01:23;;;;;;;11.53;4.50;;;7.10;99.90;;;;;;10139759;28;20425;-63
2023/01/04 02:06:21;;;;;;;8.30;4.25;;;7.20;99.90;;;;;;10139179;28;20028;-64
2023/01/04 02:11:11;;;;;;;9.77;4.90;;;7.30;99.90;;;;;;10138469;28;20035;-64
2023/01/04 02:16:21;;;;;;;11.07;5.05;;;7.40;99.90;;;;;;10138839;28;20046;-64
2023/01/04 02:21:28;;;;;;;10.52;4.80;;;7.40;99.90;;;;;;10136257;28;20242;-64
2023/01/04 02:26:27;;;;;;;12.20;6.00;;;7.50;99.90;;;;;;10137390;28;20103;-63
2023/01/04 02:31:52;;;;;;;10.60;5.43;;;7.50;99.90;;;;;;10129159;28;20025;-64
2023/01/04 02:37:07;;;;;;;7.72;3.45;;;7.50;99.90;;;;;;10131090;28;20049;-64
2023/01/04 02:42:14;;;;;;;11.40;4.55;;;7.60;99.90;;;;;;10138367;28;20035;-63
2023/01/04 02:47:16;;;;;;;8.05;4.28;;;7.70;99.90;;;;;;10136902;28;20215;-63
2023/01/04 02:52:07;;;;;;;6.50;3.70;;;7.60;99.90;;;;;;10136967;28;20044;-63
2023/01/04 02:57:16;;;;;;;6.93;4.40;;;7.70;99.90;;;;;;10136939;28;20024;-63
2023/01/04 03:08:03;;;;;;;6.55;3.55;;;7.60;99.90;;;;;;10134518;28;20041;-63
2023/01/04 03:13:01;;;;;;;5.88;3.42;;;7.60;99.90;;;;;;10135722;28;20077;-64
2023/01/04 03:18:07;;;;;;;7.80;3.90;;;7.60;99.90;;;;;;10136174;28;20025;-63
2023/01/04 03:49:47;;;;;;;7.55;4.00;;;7.70;99.90;;;;;;10134700;28;20039;-64
2023/01/04 03:54:43;;;;;;;8.15;4.45;;;7.80;99.90;;;;;;10136050;28;20398;-63
2023/01/04 03:59:39;;;;;;;7.93;3.65;;;7.70;99.90;;;;;;10133799;28;20509;-63
2023/01/04 04:09:39;;;;;;;7.18;3.45;;;7.80;99.90;;;;;;10132061;28;20051;-63
2023/01/04 04:14:30;;;;;;;7.28;3.13;;;7.70;99.90;;;;;;10134941;28;20048;-63
2023/01/04 04:19:21;;;;;;;7.50;3.80;;;7.70;99.90;;;;;;10134388;28;20056;-64
2023/01/04 04:24:24;;;;;;;6.70;3.92;;;7.80;99.90;;;;;;10135530;28;20036;-63
2023/01/04 04:29:15;;;;;;;7.93;3.35;;;7.80;99.90;;;;;;10134380;28;20486;-63
2023/01/04 04:34:06;;;;;;;4.60;2.47;;;7.70;99.90;;;;;;10135533;28;20031;-63
2023/01/04 04:38:56;;;;;;;4.85;2.80;;;7.70;99.90;;;;;;10135092;28;20043;-64
2023/01/04 04:43:47;;;;;;;4.05;2.97;;;7.80;99.90;;;;;;10134653;28;20032;-64
2023/01/04 04:48:37;;;;;;;5.28;2.25;;;7.80;99.90;;;;;;10137265;28;20032;-63
2023/01/04 04:53:28;;;;;;;4.38;2.05;;;7.90;99.90;;;;;;10142314;28;20616;-64
2023/01/04 04:58:19;;;;;;;5.47;2.50;;;8.00;99.90;;;;;;10140559;28;20035;-63
2023/01/04 05:03:09;;;;;;;3.65;2.13;;;8.00;99.90;;;;;;10140572;28;20042;-64
2023/01/04 05:08:00;;;;;;;3.13;1.92;;;8.00;99.90;;;;;;10138185;28;20051;-63
2023/01/04 05:13:00;;;;;;;4.90;2.22;;;8.00;99.90;;;;;;10140771;28;20220;-63
2023/01/04 05:17:50;;;;;;;4.30;2.08;;;7.90;99.90;;;;;;10140778;28;20510;-63
2023/01/04 05:22:41;;;;;;;5.40;2.33;;;8.00;99.90;;;;;;10140420;28;20113;-63
2023/01/04 05:27:32;;;;;;;3.25;1.85;;;8.00;99.90;;;;;;10140710;28;20387;-63
2023/01/04 05:32:22;;;;;;;4.78;1.60;;;8.00;99.90;;;;;;10140750;28;20071;-63
2023/01/04 05:37:13;;;;;;;1.85;1.58;;;8.00;99.90;;;;;;10139449;28;20016;-63
2023/01/04 05:47:13;;;;;;;4.47;2.38;;;8.10;99.90;;;;;;10140054;28;20142;-63
2023/01/04 05:52:03;;;;;;;2.40;1.50;;;8.10;99.90;;;;;;10140148;28;20447;-64
2023/01/04 05:56:54;;;;;;;3.13;1.67;;;8.10;99.90;;;;;;10138781;28;20403;-66
2023/01/04 06:01:44;;;;;;;2.10;1.35;;;8.10;99.90;;;;;;10138142;28;20092;-63
2023/01/04 06:06:35;;;;;;;2.67;1.33;;;8.10;99.90;;;;;;10135482;28;20112;-63
2023/01/04 06:11:26;;;;;;;2.30;1.13;;;8.20;99.90;;;;;;10138489;28;20396;-63
2023/01/04 06:16:16;;;;;;;2.10;1.23;;;8.20;99.90;;;;;;10137944;28;20598;-64
2023/01/04 06:21:07;;;;;;;3.25;1.60;;;8.30;99.90;;;;;;10139011;28;20070;-63
2023/01/04 06:25:57;;;;;;;5.05;1.88;;;8.30;99.90;;;;;;10138117;28;20021;-63
2023/01/04 06:30:48;;;;;;;2.13;1.10;;;8.20;99.90;;;;;;10137291;28;20046;-65
2023/01/04 06:35:39;;;;;;;2.13;1.08;;;8.20;99.90;;;;;;10137498;28;20105;-63
2023/01/04 06:40:29;;;;;;;1.55;0.90;;;8.30;99.90;;;;;;10138426;28;20028;-65
2023/01/04 06:45:20;;;;;;;2.65;1.35;;;8.30;99.90;;;;;;10137807;28;20036;-64
2023/01/04 06:50:10;;;;;;;4.07;1.38;;;8.30;99.90;;;;;;10137621;28;20036;-64
2023/01/04 06:55:01;;;;;;;2.83;1.30;;;8.30;99.90;;;;;;10137224;28;20032;-64
2023/01/04 06:59:52;;;;;;;1.88;1.40;;;8.30;99.90;;;;;;10137343;28;20395;-65
2023/01/04 07:04:43;;;;;;;6.28;2.65;;;8.30;99.90;;;;;;10136431;28;20453;-63
2023/01/04 07:09:34;;;;;;;6.53;2.15;;;8.30;99.90;;;;;;10136798;28;20028;-64
2023/01/04 07:14:25;;;;;;;1.67;1.40;;;8.40;99.90;;;;;;10136645;28;20383;-64
2023/01/04 07:19:16;;;;;;;1.95;1.38;;;8.40;99.90;;;;;;10135692;28;20044;-66
2023/01/04 07:24:06;;;;;;;2.30;0.93;;;8.40;99.90;;;;;;10136564;28;20032;-64
2023/01/04 07:34:06;;;;;;;1.52;1.00;;;8.50;99.90;;;;;;10135780;28;20047;-62
2023/01/04 07:39:00;;;;;;;4.50;1.02;;;8.50;99.90;;;;;;10134745;28;20056;-63
2023/01/04 07:43:51;;;;;;;0.98;0.73;;;8.50;99.90;;;;;;10134575;28;20566;-64
2023/01/04 07:48:41;;;;;;;1.67;0.90;;;8.50;99.90;;;;;;10133615;28;20107;-66
2023/01/04 07:53:32;;;;;;;0.90;0.70;;;8.50;99.90;;;;;;10131595;28;20506;-62
2023/01/04 07:58:24;;;;;;;3.08;0.80;;;8.60;99.90;;;;;;10123972;28;21073;-63
2023/01/04 08:03:15;;;;;;;2.03;0.85;;;8.60;99.90;;;;;;10133675;28;20025;-63
2023/01/04 08:08:05;;;;;;;2.22;1.15;;;8.60;99.90;;;;;;10133260;28;20024;-62
2023/01/04 08:12:59;;;;;;;1.42;0.80;;;8.70;99.90;;;;;;10132991;28;20041;-62
2023/01/04 08:17:50;;;;;;;1.77;0.90;;;8.70;99.90;;;;;;10133474;28;20016;-63
2023/01/04 08:22:40;;;;;;;2.13;1.15;;;8.80;99.90;;;;;;10133793;28;20497;-63
2023/01/04 08:27:31;;;;;;;1.02;0.82;;;8.90;99.90;;;;;;10140931;28;20061;-64
2023/01/04 08:32:22;;;;;;;4.20;1.17;;;8.90;99.90;;;;;;10141021;28;20032;-65
2023/01/04 08:37:13;;;;;;;1.08;0.85;;;8.90;99.90;;;;;;10139168;28;20021;-64
2023/01/04 08:42:03;;;;;;;1.35;0.70;;;8.90;99.90;;;;;;10138250;28;20025;-63
2023/01/04 08:46:54;;;;;;;1.38;0.98;;;9.00;99.90;;;;;;10140218;28;20429;-68
2023/01/04 08:51:45;;;;;;;1.63;0.80;;;8.90;99.90;;;;;;10138445;28;20475;-64
2023/01/04 08:56:36;;;;;;;0.98;0.75;;;9.00;99.90;;;;;;10138569;28;20045;-67
2023/01/04 09:01:27;;;;;;;1.73;0.80;;;9.10;99.90;;;;;;10140361;28;20025;-64
2023/01/04 09:06:18;;;;;;;2.70;0.82;;;9.10;99.90;;;;;;10139182;28;20025;-66
2023/01/04 09:11:14;;;;;;;5.38;1.38;;;9.00;99.90;;;;;;10139176;28;20063;-66
2023/01/04 09:16:08;;;;;;;1.77;1.35;;;9.10;99.90;;;;;;10138762;28;20055;-64
2023/01/04 09:21:04;;;;;;;1.60;1.02;;;9.10;99.90;;;;;;10136286;28;20128;-68
2023/01/04 09:25:58;;;;;;;1.25;0.80;;;9.10;99.90;;;;;;10138077;28;20426;-67
2023/01/04 09:30:48;;;;;;;1.23;1.08;;;9.20;99.90;;;;;;10139798;28;20056;-67
2023/01/04 09:35:39;;;;;;;2.38;1.27;;;9.20;99.90;;;;;;10125003;28;20067;-68
2023/01/04 09:41:09;;;;;;;2.13;1.15;;;9.20;99.90;;;;;;10140803;28;20112;-64
2023/01/04 09:46:06;;;;;;;3.33;1.40;;;9.30;99.90;;;;;;10135950;28;20075;-62
2023/01/04 09:51:04;;;;;;;3.25;1.30;;;9.30;99.90;;;;;;10139730;28;20071;-61
2023/01/04 09:56:19;;;;;;;1.40;1.02;;;9.30;99.90;;;;;;10137435;28;20148;-60
2023/01/04 10:01:13;;;;;;;4.25;0.90;;;9.30;99.90;;;;;;10137743;28;20494;-60
2023/01/04 10:06:08;;;;;;;1.25;0.70;;;9.40;99.90;;;;;;10136911;28;20111;-64
2023/01/04 10:11:39;;;;;;;2.63;0.97;;;9.50;99.90;;;;;;10138240;28;20023;-61
2023/01/04 10:16:42;;;;;;;1.95;0.98;;;9.80;99.90;;;;;;10135062;28;20028;-62
2023/01/04 10:21:55;;;;;;;1.58;0.90;;;9.90;99.90;;;;;;10137323;28;20056;-60
2023/01/04 10:26:48;;;;;;;2.17;0.90;;;10.00;99.90;;;;;;10143802;28;20024;-63
2023/01/04 10:31:49;;;;;;;1.25;0.73;;;10.00;99.90;;;;;;10135236;28;20472;-63
2023/01/04 10:36:40;;;;;;;1.52;0.85;;;10.00;99.90;;;;;;10133083;28;20502;-60
2023/01/04 10:41:41;;;;;;;1.30;0.68;;;10.10;99.90;;;;;;10135845;28;20028;-63
2023/01/04 10:46:42;;;;;;;3.03;1.00;;;10.20;99.90;;;;;;10133541;28;20036;-64
2023/01/04 10:51:41;;;;;;;1.33;0.95;;;10.30;99.90;;;;;;10136956;28;20081;-64
2023/01/04 10:56:42;;;;;;;1.58;0.82;;;10.30;99.90;;;;;;10125342;28;20498;-64
2023/01/04 11:01:47;;;;;;;2.80;1.48;;;10.30;99.90;;;;;;10135761;28;20017;-69
2023/01/04 11:07:01;;;;;;;1.83;0.88;;;10.40;99.90;;;;;;10134447;28;20032;-72
2023/01/04 11:11:55;;;;;;;4.55;1.05;;;10.40;99.90;;;;;;10139017;28;20063;-63
2023/01/04 11:16:49;;;;;;;1.23;0.80;;;10.60;99.90;;;;;;10137211;28;20128;-59
2023/01/04 11:21:48;;;;;;;2.58;1.10;;;10.70;99.90;;;;;;10135382;28;20052;-66
2023/01/04 11:26:43;;;;;;;2.67;1.15;;;10.90;99.90;;;;;;10136506;28;20027;-61
2023/01/04 11:31:45;;;;;;;3.03;1.00;;;11.00;99.90;;;;;;10136037;28;20131;-61
2023/01/04 11:36:37;;;;;;;1.50;0.90;;;10.90;99.90;;;;;;10110023;28;20578;-62
2023/01/04 11:41:28;;;;;;;2.05;1.10;;;10.80;99.90;;;;;;10106643;28;20009;-62
2023/01/04 11:46:20;;;;;;;2.22;1.02;;;10.80;99.90;;;;;;10087758;28;20191;-60
2023/01/04 11:51:24;;;;;;;1.30;0.90;;;10.80;99.90;;;;;;10124816;28;20024;-60
2023/01/04 11:56:19;;;;;;;2.10;0.85;;;10.90;99.90;;;;;;10127875;28;20029;-63
2023/01/04 12:01:28;;;;;;;1.65;0.80;;;10.80;99.90;;;;;;10129065;28;20580;-60
2023/01/04 12:06:28;;;;;;;1.90;1.08;;;10.90;99.90;;;;;;10129425;28;20028;-61
2023/01/04 12:11:30;;;;;;;4.47;1.40;;;11.10;99.90;;;;;;10128737;28;20029;-59
2023/01/04 12:16:40;;;;;;;1.90;1.20;;;11.20;99.90;;;;;;10127713;28;20498;-63
2023/01/04 12:21:33;;;;;;;3.08;1.10;;;11.30;99.90;;;;;;10129462;28;20408;-66
2023/01/04 12:26:24;;;;;;;1.67;0.90;;;11.40;99.90;;;;;;10127381;28;20115;-61
2023/01/04 12:31:18;;;;;;;1.88;0.82;;;11.50;99.90;;;;;;10130694;28;20558;-66
2023/01/04 12:36:09;;;;;;;3.97;1.58;;;11.50;99.90;;;;;;10132464;28;20040;-63
2023/01/04 12:40:59;;;;;;;2.03;0.80;;;11.40;99.90;;;;;;10134086;28;20048;-64
2023/01/04 12:51:37;;;;;;;1.10;0.65;;;11.30;99.90;;;;;;10130875;28;20571;-64
2023/01/04 12:57:16;;;;;;;1.25;0.70;;;11.20;99.90;;;;;;10128452;28;20074;-61
2023/01/04 13:02:28;;;;;;;2.03;0.70;;;11.20;99.90;;;;;;10113050;28;20029;-60
2023/01/04 13:07:25;;;;;;;2.22;0.75;;;11.10;99.90;;;;;;10121003;28;20181;-61
2023/01/04 13:12:45;;;;;;;1.50;0.98;;;11.10;99.90;;;;;;10129598;28;20120;-62
2023/01/04 13:17:39;;;;;;;1.35;0.70;;;11.20;99.90;;;;;;10130896;28;20020;-63
2023/01/04 13:22:31;;;;;;;1.38;0.70;;;11.30;99.90;;;;;;10131930;28;20052;-65
2023/01/04 13:27:22;;;;;;;1.55;0.80;;;11.30;99.90;;;;;;10133094;28;20043;-62
2023/01/04 13:32:22;;;;;;;2.83;0.75;;;11.30;99.90;;;;;;10132620;28;20033;-65
2023/01/04 13:37:20;;;;;;;1.55;0.70;;;11.30;99.90;;;;;;10133640;28;20021;-63
2023/01/04 13:42:25;;;;;;;1.45;0.77;;;11.30;99.90;;;;;;10134527;28;20035;-63
2023/01/04 13:47:16;;;;;;;1.15;0.60;;;11.30;99.90;;;;;;10134324;28;20155;-64
2023/01/04 13:52:25;;;;;;;0.93;0.65;;;11.40;99.90;;;;;;10134711;28;20558;-64
2023/01/04 13:57:20;;;;;;;1.08;0.82;;;11.50;99.90;;;;;;10134477;28;20399;-62
2023/01/04 14:02:19;;;;;;;1.40;0.80;;;11.40;99.90;;;;;;10132620;28;20025;-64
2023/01/04 14:07:10;;;;;;;1.52;0.85;;;11.40;99.90;;;;;;10132683;28;20031;-63
2023/01/04 14:12:12;;;;;;;1.58;0.98;;;11.30;99.90;;;;;;10137426;28;20023;-61
2023/01/04 14:17:08;;;;;;;0.85;0.55;;;11.30;99.90;;;;;;10133722;28;20491;-60
2023/01/04 14:21:59;;;;;;;1.77;1.58;;;11.30;99.90;;;;;;10136409;28;20049;-61
2023/01/04 14:26:50;;;;;;;1.92;1.17;;;11.30;99.90;;;;;;10137423;28;20533;-62
2023/01/04 14:31:42;;;;;;;1.05;0.70;;;11.30;99.90;;;;;;10134309;28;20016;-61
2023/01/04 14:36:35;;;;;;;1.35;0.50;;;11.30;99.90;;;;;;10134928;28;20548;-61
2023/01/04 14:41:31;;;;;;;1.77;0.73;;;11.30;99.90;;;;;;10133805;28;20020;-65
2023/01/04 14:46:22;;;;;;;1.75;0.90;;;11.20;99.90;;;;;;10136504;28;20463;-64
2023/01/04 14:51:24;;;;;;;2.05;0.60;;;11.20;99.90;;;;;;10138136;28;20108;-63
2023/01/04 14:56:17;;;;;;;1.10;0.50;;;11.30;99.90;;;;;;10135922;28;20043;-66
2023/01/04 15:01:09;;;;;;;1.10;0.65;;;11.30;99.90;;;;;;10134819;28;20056;-63
2023/01/04 15:05:59;;;;;;;1.33;0.60;;;11.30;99.90;;;;;;10136299;28;20024;-62
2023/01/04 15:10:50;;;;;;;1.63;0.60;;;11.20;99.90;;;;;;10136326;28;20024;-62
2023/01/04 15:15:41;;;;;;;0.88;0.43;;;11.20;99.90;;;;;;10132814;28;20517;-62
2023/01/04 15:20:31;;;;;;;3.10;0.73;;;11.20;99.90;;;;;;10138043;28;20049;-65
2023/01/04 15:25:22;;;;;;;1.65;0.68;;;11.20;99.90;;;;;;10137215;28;20085;-64
2023/01/04 15:30:13;;;;;;;2.60;1.25;;;11.10;99.90;;;;;;10136550;28;20376;-66
2023/01/04 15:35:05;;;;;;;1.13;0.65;;;11.10;99.90;;;;;;10135466;28;20028;-67
2023/01/04 15:39:56;;;;;;;1.40;0.63;;;11.10;99.90;;;;;;10136773;28;20020;-68
2023/01/04 15:44:47;;;;;;;1.45;0.80;;;11.10;99.90;;;;;;10135532;28;20531;-66
2023/01/04 15:49:37;;;;;;;0.90;0.73;;;11.10;99.90;;;;;;10134390;28;20102;-66
2023/01/04 15:54:28;;;;;;;1.95;0.85;;;11.10;99.90;;;;;;10133500;28;20032;-69
2023/01/04 15:59:19;;;;;;;0.40;0.40;;;11.10;99.90;;;;;;10130763;28;20036;-63
2023/01/04 16:04:11;;;;;;;1.02;0.60;;;11.10;99.90;;;;;;10134139;28;20548;-67
2023/01/04 16:09:02;;;;;;;1.00;0.60;;;11.10;99.90;;;;;;10133477;28;20056;-66
2023/01/04 16:13:53;;;;;;;1.10;0.40;;;11.10;99.90;;;;;;10130824;28;20123;-65
2023/01/04 16:18:49;;;;;;;1.17;0.70;;;11.10;99.90;;;;;;10136014;28;20123;-65
2023/01/04 16:23:40;;;;;;;1.52;0.68;;;11.10;99.90;;;;;;10130596;28;20047;-62
2023/01/04 16:28:31;;;;;;;1.33;0.55;;;11.10;99.90;;;;;;10133634;28;20021;-64
2023/01/04 16:33:22;;;;;;;0.80;0.50;;;11.00;99.90;;;;;;10133141;28;20537;-68
2023/01/04 16:38:12;;;;;;;1.15;0.45;;;11.10;99.90;;;;;;10132364;28;20032;-64
2023/01/04 16:43:03;;;;;;;0.52;0.45;;;11.10;99.90;;;;;;10132805;28;20027;-65
2023/01/04 16:47:55;;;;;;;1.15;0.50;;;11.10;99.90;;;;;;10141254;28;20390;-65
2023/01/04 16:52:45;;;;;;;2.17;0.50;;;11.10;99.90;;;;;;10142511;28;20082;-61
2023/01/04 16:57:36;;;;;;;2.25;0.65;;;11.10;99.90;;;;;;10138685;28;20020;-63
2023/01/04 17:02:26;;;;;;;3.38;0.85;;;11.10;99.90;;;;;;10142156;28;20040;-67
2023/01/04 17:07:17;;;;;;;2.17;0.90;;;11.10;99.90;;;;;;10140930;28;20020;-73
2023/01/04 17:12:08;;;;;;;0.60;0.47;;;11.10;99.90;;;;;;10138803;28;20043;-61
2023/01/04 17:16:59;;;;;;;0.77;0.50;;;11.10;99.90;;;;;;10140653;28;20066;-68
2023/01/04 17:21:50;;;;;;;1.48;0.82;;;11.10;99.90;;;;;;10141763;28;20055;-67
2023/01/04 17:26:41;;;;;;;1.17;0.63;;;11.10;99.90;;;;;;10141517;28;20310;-70
2023/01/04 17:31:35;;;;;;;0.50;0.47;;;11.10;99.90;;;;;;10140145;28;20032;-61
2023/01/04 17:36:25;;;;;;;2.45;0.80;;;11.10;99.90;;;;;;10139151;28;20511;-70
2023/01/04 17:41:17;;;;;;;1.80;1.10;;;11.10;99.90;;;;;;10140918;28;20016;-69
2023/01/04 17:46:13;;;;;;;2.80;0.90;;;11.10;99.90;;;;;;10139905;28;20070;-66
2023/01/04 17:51:04;;;;;;;;;;;11.10;99.90;;;;;;10140060;28;20028;-64
2023/01/04 17:55:54;;;;;;;3.03;0.98;;;11.10;99.90;;;;;;10138871;28;20019;-68
2023/01/04 18:00:45;;;;;;;3.15;0.60;;;11.00;99.90;;;;;;10135270;28;20067;-67
2023/01/04 18:05:36;;;;;;;1.30;0.70;;;11.00;99.90;;;;;;10135888;28;20394;-62
2023/01/04 18:10:26;;;;;;;0.73;0.60;;;11.00;99.90;;;;;;10136680;28;20415;-70
2023/01/04 18:15:18;;;;;;;0.82;0.60;;;11.00;99.90;;;;;;10138068;28;20037;-65
2023/01/04 18:20:09;;;;;;;1.25;0.55;;;11.00;99.90;;;;;;10139514;28;20125;-68
2023/01/04 18:25:00;;;;;;;1.95;0.70;;;10.90;99.90;;;;;;10138403;28;20113;-64
2023/01/04 18:29:52;;;;;;;0.77;0.70;;;11.00;99.90;;;;;;10139069;28;20044;-66
2023/01/04 18:34:43;;;;;;;1.65;0.80;;;11.00;99.90;;;;;;10134953;28;20457;-67
2023/01/04 18:39:33;;;;;;;0.70;0.60;;;11.00;99.90;;;;;;10138516;28;20102;-64
2023/01/04 18:44:24;;;;;;;1.30;0.70;;;11.00;99.90;;;;;;10137932;28;20294;-64
2023/01/04 18:49:16;;;;;;;2.92;0.93;;;11.00;99.90;;;;;;10138513;28;20039;-66
2023/01/04 18:54:07;;;;;;;1.70;0.80;;;11.00;99.90;;;;;;10138277;28;20602;-66
2023/01/04 18:58:58;;;;;;;2.70;0.80;;;11.10;99.90;;;;;;10137829;28;20043;-69
2023/01/04 19:03:49;;;;;;;2.13;1.08;;;11.10;99.90;;;;;;10133285;28;20100;-70
2023/01/04 19:08:40;;;;;;;2.90;0.73;;;11.10;99.90;;;;;;10133716;28;20050;-70
2023/01/04 19:13:31;;;;;;;1.45;0.70;;;11.10;99.90;;;;;;10135010;28;20032;-73
2023/01/04 19:18:25;;;;;;;2.10;1.00;;;11.10;99.90;;;;;;10135908;28;20024;-63
2023/01/04 19:23:16;;;;;;;2.45;1.45;;;11.20;99.90;;;;;;10137936;28;20059;-63
2023/01/04 19:28:07;;;;;;;1.90;0.98;;;11.20;99.90;;;;;;10136963;28;20036;-59
2023/01/04 19:32:58;;;;;;;1.73;1.10;;;11.20;99.90;;;;;;10135522;28;20036;-65
2023/01/04 19:37:49;;;;;;;1.05;0.65;;;11.20;99.90;;;;;;10133873;28;20037;-70
2023/01/04 19:42:40;;;;;;;1.10;0.65;;;11.30;99.90;;;;;;10135442;28;20032;-64
2023/01/04 19:47:31;;;;;;;1.90;1.00;;;11.20;99.90;;;;;;10135444;28;20446;-62
2023/01/04 19:52:21;;;;;;;1.45;0.60;;;11.30;99.90;;;;;;10140191;28;20040;-63
2023/01/04 19:57:12;;;;;;;2.03;0.82;;;11.30;99.90;;;;;;10136296;28;20086;-63
2023/01/04 20:02:04;;;;;;;2.03;1.48;;;11.40;99.90;;;;;;10133827;28;20024;-63
2023/01/04 20:06:55;;;;;;;1.05;0.70;;;11.50;99.90;;;;;;10136272;28;20421;-62
2023/01/04 20:11:46;;;;;;;0.82;0.60;;;11.50;99.90;;;;;;10135067;28;20017;-63
2023/01/04 20:16:36;;;;;;;1.52;0.70;;;11.60;99.90;;;;;;10135894;28;20024;-60
2023/01/04 20:21:27;;;;;;;1.52;0.60;;;11.60;99.90;;;;;;10142730;28;20048;-61
2023/01/04 20:26:18;;;;;;;0.98;0.70;;;11.70;99.90;;;;;;10144111;28;20123;-63
2023/01/04 20:31:12;;;;;;;1.13;0.65;;;11.70;99.90;;;;;;10126672;28;20474;-64
2023/01/04 20:36:08;;;;;;;1.73;0.57;;;11.80;99.90;;;;;;10143987;28;20037;-69
2023/01/04 20:41:00;;;;;;;0.50;0.45;;;11.90;99.90;;;;;;10141689;28;20028;-66
2023/01/04 20:45:50;;;;;;;0.82;0.50;;;12.00;99.90;;;;;;10142548;28;20281;-63
2023/01/04 20:50:42;;;;;;;15.02;7.70;;;12.00;99.90;;;;;;10144139;28;20560;-68
2023/01/04 20:55:40;;;;;;;3.25;0.70;;;12.00;99.90;;;;;;10142389;28;20071;-65
2023/01/04 21:00:30;;;;;;;1.10;0.73;;;12.00;99.90;;;;;;10139735;28;20037;-65
2023/01/04 21:05:21;;;;;;;1.30;0.68;;;12.00;99.90;;;;;;10139303;28;20372;-65
2023/01/04 21:10:12;;;;;;;1.98;0.82;;;12.00;99.90;;;;;;10140607;28;20394;-65
2023/01/04 21:15:02;;;;;;;1.00;0.60;;;12.00;99.90;;;;;;10134394;28;20037;-64
2023/01/04 21:19:53;;;;;;;0.70;0.52;;;12.00;99.90;;;;;;10141180;28;20045;-68
2023/01/04 21:24:44;;;;;;;0.77;0.57;;;12.00;99.90;;;;;;10141370;28;20080;-62
2023/01/04 21:29:34;;;;;;;0.52;0.40;;;12.00;99.90;;;;;;10141695;28;20032;-65
2023/01/04 21:34:26;;;;;;;0.63;0.40;;;12.00;99.90;;;;;;10140943;28;20045;-66
2023/01/04 21:39:17;;;;;;;1.33;0.50;;;12.00;99.90;;;;;;10139572;28;20032;-71
2023/01/04 21:44:08;;;;;;;1.20;0.60;;;12.00;99.90;;;;;;10137793;28;20503;-71
2023/01/04 21:49:02;;;;;;;2.22;0.70;;;12.00;99.90;;;;;;10139896;28;20040;-70
2023/01/04 21:53:53;;;;;;;0.90;0.38;;;12.00;99.90;;;;;;10137747;28;20043;-70
2023/01/04 21:58:44;;;;;;;0.75;0.40;;;11.90;99.90;;;;;;10138211;28;20047;-70
2023/01/04 22:03:35;;;;;;;0.40;0.40;;;11.80;99.90;;;;;;10138838;28;20504;-73
2023/01/04 22:08:25;;;;;;;0.68;0.38;;;11.80;99.90;;;;;;10137682;28;20100;-68
2023/01/04 22:13:16;;;;;;;0.68;0.40;;;11.70;99.90;;;;;;10138284;28;20383;-70
2023/01/04 22:18:07;;;;;;;0.70;0.47;;;11.70;99.90;;;;;;10139145;28;20568;-65
2023/01/04 22:22:57;;;;;;;1.33;0.88;;;11.70;99.90;;;;;;10132750;28;20510;-64
2023/01/04 22:27:49;;;;;;;1.35;0.50;;;11.70;99.90;;;;;;10131397;28;20017;-69
2023/01/04 22:32:40;;;;;;;0.57;0.32;;;11.70;99.90;;;;;;10137659;28;20174;-63
2023/01/04 22:37:30;;;;;;;1.55;0.50;;;11.60;99.90;;;;;;10138054;28;20095;-63
2023/01/04 22:42:21;;;;;;;1.05;0.60;;;11.60;99.90;;;;;;10137449;28;20122;-65
2023/01/04 22:47:11;;;;;;;2.13;0.55;;;11.60;99.90;;;;;;10138650;28;20032;-63
2023/01/04 22:52:02;;;;;;;0.63;0.47;;;11.70;99.90;;;;;;10137975;28;20021;-68
2023/01/04 22:56:53;;;;;;;0.50;0.40;;;11.60;99.90;;;;;;10137062;28;20240;-68
2023/01/04 23:01:43;;;;;;;1.02;0.40;;;11.70;99.90;;;;;;10137237;28;20016;-67
2023/01/04 23:06:34;;;;;;;0.88;0.30;;;11.60;99.90;;;;;;10135323;28;20463;-66
2023/01/04 23:11:26;;;;;;;0.90;0.50;;;11.60;99.90;;;;;;10137537;28;20024;-64
2023/01/04 23:16:18;;;;;;;0.98;0.50;;;11.60;99.90;;;;;;10136453;28;20071;-65
2023/01/04 23:21:09;;;;;;;1.02;0.70;;;11.60;99.90;;;;;;10136493;28;20041;-64
2023/01/04 23:26:07;;;;;;;0.68;0.45;;;11.60;99.90;;;;;;10136001;28;20391;-65
2023/01/04 23:31:03;;;;;;;0.88;0.40;;;11.60;99.90;;;;;;10136138;28;20111;-70
2023/01/04 23:35:54;;;;;;;;;;;11.70;99.90;;;;;;10136594;28;20115;-71
2023/01/04 23:40:47;;;;;;;1.02;0.40;;;11.70;99.90;;;;;;10136124;28;20006;-67
2023/01/04 23:45:38;;;;;;;0.38;0.28;;;11.60;99.90;;;;;;10135578;28;20483;-68
2023/01/04 23:50:29;;;;;;;1.17;0.47;;;11.60;99.90;;;;;;10134394;28;20178;-67
2023/01/04 23:55:19;;;;;;;0.22;0.15;;;11.40;99.90;;;;;;10134442;28;20033;-66
